This is the latest recevied weather packets stored in our database for station/object SP4MAZ-13. If no packets are shown the sender has not sent any weather packets the latest 10 day(s).
| Time | Temp. | Humidity | Pressure | Rain* | Wind** | Luminosity | Snow |
|---|---|---|---|---|---|---|---|
| 1777196197 | 5° C | 57% | 2147.4 hPa | - | - | - | - |
| 1777195894 | 6.11° C | 53% | 2147.4 hPa | - | - | - | - |
| 1777195590 | 5.56° C | 55% | 2147.4 hPa | - | - | - | - |
| 1777195287 | 5° C | 64% | 2147.4 hPa | - | - | - | - |
| 1777194984 | 5.56° C | 66% | 2147.4 hPa | - | - | - | - |
| 1777194680 | 5° C | 72% | 2147.4 hPa | - | - | - | - |
| 1777194379 | 5.56° C | 72% | 2147.4 hPa | - | - | - | - |
| 1777194076 | 5° C | 75% | 2147.4 hPa | - | - | - | - |
| 1777193773 | 4.44° C | 80% | 2147.4 hPa | - | - | - | - |
| 1777193469 | 4.44° C | 87% | 2147.4 hPa | - | - | - | - |
| 1777193168 | 3.89° C | 93% | 2147.4 hPa | - | - | - | - |
| 1777192865 | 3.33° C | 99% | 2147.4 hPa | - | - | - | - |
| 1777192561 | 2.78° C | 99% | 2147.4 hPa | - | - | - | - |
| 1777192258 | 2.22° C | 99% | 2147.4 hPa | - | - | - | - |
| 1777191954 | 2.78° C | 86% | 2147.4 hPa | - | - | - | - |
| 1777191651 | 2.78° C | 76% | 2147.4 hPa | - | - | - | - |
| 1777191348 | 4.44° C | 64% | 2147.4 hPa | - | - | - | - |
| 1777191044 | 5.56° C | 60% | 2147.4 hPa | - | - | - | - |
| 1777190741 | 5.56° C | 57% | 2147.4 hPa | - | - | - | - |
| 1777190438 | 6.11° C | 53% | 2147.4 hPa | - | - | - | - |
| 1777190134 | 6.11° C | 54% | 2147.4 hPa | - | - | - | - |
| 1777189831 | 6.11° C | 52% | 2147.4 hPa | - | - | - | - |
| 1777189527 | 5.56° C | 54% | 2147.4 hPa | - | - | - | - |
| 1777189225 | 5° C | 59% | 2147.4 hPa | - | - | - | - |
| 1777188921 | 4.44° C | 59% | 2147.4 hPa | - | - | - | - |
* Rain since midnight (hover to see other rain measurements)
** Current wind speed in m/s (hover to see current wind gust speed)